Mobile, AL (36601)

2:22 AM CST on February 14, 2016 (GMT -0600)
Downtown Waterfront | | Change Station
CLOSE
Current Station
Personal Weather Station
Location: Mobile, AL
Elevation: 13 ft
Nearby Weather Stations

Elev 13 ft 30.69 °N, 88.04 °W | Updated 3 seconds ago

Clear
Clear
42.1 °F
Feels Like 37 °F
N
8.0
Wind Variable Wind from ENE
Gusts 11.0 mph

Today
High -- | Low -- °F
--% Chance of Precip.
Yesterday
High -- | Low -- °F
Precip. -- in
Pressure 30.30 in
Visibility 10.0 miles
Clouds Clear
Windchill 37 °F
Dew Point 22 °F
Humidity 45%
Rainfall 0.00 in
Snow Depth Not available.
6:34 AM 5:38 PM
Waxing Crescent, 39% visible
METAR KBFM 140753Z AUTO 06010KT 10SM CLR 07/M06 A3030 RMK AO2 SLP261 T00721061
Pressure 30.30 in
Visibility 10.0 miles
Clouds Clear
Windchill 37 °F
Dew Point 22 °F
Humidity 45%
Rainfall 0.00 in
Snow Depth Not available.
6:34 AM 5:38 PM
Waxing Crescent, 39% visible
METAR KBFM 140753Z AUTO 06010KT 10SM CLR 07/M06 A3030 RMK AO2 SLP261 T00721061

10-Day Weather Forecast

Almanac

Astronomy

Feb. 14, 2016 Rise Set
Actual Time
Civil Twilight
Nautical Twilight
Astronomical Twilight
Moon
Length of Visible Light
Length of Day
Tomorrow will be .
, % of the Moon is Illuminated

Today's Extremes

State Highs State Lows

Community

WunderPhotos

Upload Photos

1,892,757 photos uploaded!

WunderBlog® & News

Nearby

Air Quality

  Air Quality AQ Index Pollutant
Not available.

Snow Depth

Station Depth Elevation

Earthquake Activity

City Distance Mag. Time & Date
Minimum magnitude displayed is 2.5.

Coastal Water Temperatures

Place Temperature

Stations

Nearby Weather Stations

Station Location Temp. Windchill Dew Point Humidity Wind Precip. Elev Updated Type
                   

Watches & Warnings

There are currently no watches in effect.